Time;durP1;ratioP1;P1;durP2;ratioP2;P2;SDS_P1;SDS_P2;PMS_P1;PMS_P2;Temp;Humidity;BMP_temperature;BMP_pressure;BME280_temperature;BME280_humidity;BME280_pressure;Samples;Min_cycle;Max_cycle;Signal;HPM_P1;HPM_P2
2024/03/13 00:00:29;;;;;;;2.63;2.03;;;17.00;92.00;;;;;;5073450;28;20020;-44
2024/03/13 00:02:55;;;;;;;4.60;2.92;;;17.00;92.00;;;;;;5072999;28;20051;-43
2024/03/13 00:05:21;;;;;;;3.20;2.38;;;17.00;92.10;;;;;;5074476;28;20119;-44
2024/03/13 00:07:47;;;;;;;4.30;2.53;;;17.00;92.10;;;;;;5073428;28;20203;-42
2024/03/13 00:10:14;;;;;;;2.65;2.30;;;17.00;92.10;;;;;;5072853;28;20414;-43
2024/03/13 00:12:42;;;;;;;3.10;2.10;;;17.00;92.10;;;;;;5073408;28;20544;-44
2024/03/13 00:15:10;;;;;;;3.20;2.20;;;17.00;92.20;;;;;;5073251;28;20558;-43
2024/03/13 00:17:36;;;;;;;3.60;2.25;;;17.00;92.20;;;;;;5074369;28;20467;-43
2024/03/13 00:20:03;;;;;;;2.63;2.22;;;17.00;92.20;;;;;;5074102;28;20060;-43
2024/03/13 00:22:29;;;;;;;3.00;2.08;;;17.00;92.20;;;;;;5074235;28;20389;-44
2024/03/13 00:24:59;;;;;;;2.72;1.90;;;17.00;92.20;;;;;;5073734;28;20493;-40
2024/03/13 00:27:25;;;;;;;4.03;2.35;;;17.00;92.20;;;;;;5073262;28;20032;-42
2024/03/13 00:29:52;;;;;;;2.85;1.90;;;16.90;92.20;;;;;;5072719;28;20055;-41
2024/03/13 00:32:23;;;;;;;1.90;1.60;;;17.00;92.30;;;;;;5072790;28;20023;-44
2024/03/13 00:34:49;;;;;;;3.17;2.10;;;17.00;92.20;;;;;;5071376;28;20027;-44
2024/03/13 00:37:16;;;;;;;2.75;1.70;;;16.90;92.20;;;;;;5071758;28;20040;-43
2024/03/13 00:39:43;;;;;;;2.47;1.90;;;16.90;92.20;;;;;;5072645;28;20044;-43
2024/03/13 00:42:11;;;;;;;2.80;1.85;;;16.90;92.30;;;;;;5072353;28;20026;-41
2024/03/13 00:44:38;;;;;;;3.03;1.80;;;16.90;92.30;;;;;;5072541;28;20020;-43
2024/03/13 00:47:04;;;;;;;2.58;1.90;;;16.90;92.30;;;;;;5071595;28;20025;-43
2024/03/13 00:49:30;;;;;;;2.40;1.67;;;16.90;92.30;;;;;;5072769;28;20102;-43
2024/03/13 00:51:55;;;;;;;2.35;1.85;;;16.90;92.20;;;;;;5073003;28;20040;-43
2024/03/13 00:54:21;;;;;;;2.22;1.75;;;17.00;92.30;;;;;;5072775;28;20025;-44
2024/03/13 00:56:51;;;;;;;1.70;1.60;;;16.90;92.20;;;;;;5072046;28;20043;-44
2024/03/13 00:59:18;;;;;;;2.78;1.92;;;16.90;92.60;;;;;;5071109;28;20036;-43
2024/03/13 01:01:44;;;;;;;2.50;1.50;;;16.90;92.30;;;;;;5072018;28;20110;-43
2024/03/13 01:04:11;;;;;;;2.03;1.55;;;16.90;92.30;;;;;;5072285;28;20056;-43
2024/03/13 01:06:37;;;;;;;2.42;1.73;;;16.90;92.30;;;;;;5072491;28;20024;-43
2024/03/13 01:09:04;;;;;;;2.05;1.40;;;16.90;92.30;;;;;;5071352;28;20021;-42
2024/03/13 01:11:30;;;;;;;1.85;1.20;;;16.90;92.30;;;;;;5073063;28;20413;-44
2024/03/13 01:13:56;;;;;;;1.95;1.55;;;16.90;92.30;;;;;;5072875;28;20031;-43
2024/03/13 01:16:23;;;;;;;2.67;1.52;;;16.90;92.40;;;;;;5071872;28;20391;-43
2024/03/13 01:18:49;;;;;;;2.50;1.58;;;16.90;92.40;;;;;;5072047;28;20031;-43
2024/03/13 01:21:15;;;;;;;2.00;1.40;;;16.90;92.40;;;;;;5071317;28;20036;-43
2024/03/13 01:23:41;;;;;;;2.08;1.60;;;16.90;92.40;;;;;;5071600;28;20100;-44
2024/03/13 01:26:10;;;;;;;2.40;1.70;;;16.90;92.50;;;;;;5071970;28;20051;-43
2024/03/13 01:28:36;;;;;;;1.77;1.27;;;16.90;92.50;;;;;;5071800;28;20093;-42
2024/03/13 01:31:07;;;;;;;1.90;1.40;;;16.90;92.60;;;;;;5072454;28;20029;-44
2024/03/13 01:33:38;;;;;;;2.25;1.20;;;16.90;92.60;;;;;;5072667;28;20020;-44
2024/03/13 01:36:05;;;;;;;1.35;1.13;;;16.90;92.60;;;;;;5071951;28;20502;-43
2024/03/13 01:38:31;;;;;;;2.13;1.40;;;16.80;92.60;;;;;;5071737;28;20032;-43
2024/03/13 01:55:13;;;;;;;1.73;1.30;;;16.90;92.60;;;;;;5069647;28;20103;-44
2024/03/13 02:03:09;;;;;;;2.08;1.23;;;16.90;92.60;;;;;;5071092;28;20039;-41
2024/03/13 02:05:36;;;;;;;2.15;1.42;;;16.80;92.60;;;;;;5071379;28;20055;-43
2024/03/13 02:08:06;;;;;;;2.33;1.33;;;16.80;92.60;;;;;;5070523;28;20070;-42
2024/03/13 02:10:32;;;;;;;1.48;1.10;;;16.80;92.60;;;;;;5071795;28;20048;-42
2024/03/13 02:13:11;;;;;;;1.52;1.20;;;16.80;92.90;;;;;;5073619;28;20056;-44
2024/03/13 02:15:39;;;;;;;1.35;1.10;;;16.80;92.60;;;;;;5075380;28;20021;-41
2024/03/13 02:18:29;;;;;;;1.40;1.00;;;16.80;92.60;;;;;;5074984;28;20025;-44
2024/03/13 02:20:59;;;;;;;1.15;0.90;;;16.80;92.60;;;;;;5073841;28;20036;-44
2024/03/13 02:23:31;;;;;;;1.88;1.10;;;16.80;92.60;;;;;;5074660;28;20021;-42
2024/03/13 02:25:58;;;;;;;1.52;1.02;;;16.80;92.60;;;;;;5074855;28;20367;-44
2024/03/13 02:28:36;;;;;;;2.05;1.10;;;16.80;92.60;;;;;;5074922;28;20101;-44
2024/03/13 02:31:02;;;;;;;1.77;1.10;;;16.80;92.60;;;;;;5073708;28;20501;-40
2024/03/13 02:33:28;;;;;;;1.55;0.90;;;16.80;92.70;;;;;;5074385;28;20031;-43
2024/03/13 02:35:54;;;;;;;1.23;0.90;;;16.80;92.70;;;;;;5072182;28;20016;-43
2024/03/13 02:38:20;;;;;;;1.35;0.80;;;16.80;92.70;;;;;;5073195;28;20492;-43
2024/03/13 02:40:46;;;;;;;1.80;0.90;;;16.80;92.60;;;;;;5073374;28;20123;-43
2024/03/13 02:43:12;;;;;;;1.20;1.00;;;16.80;93.00;;;;;;5074546;28;20025;-43
2024/03/13 02:45:41;;;;;;;2.28;1.00;;;16.80;92.60;;;;;;5074103;28;20029;-43
2024/03/13 02:48:06;;;;;;;1.25;0.80;;;16.80;92.60;;;;;;5074318;28;20112;-42
2024/03/13 02:50:32;;;;;;;1.38;0.90;;;16.80;92.60;;;;;;5074208;28;20044;-43
2024/03/13 02:52:58;;;;;;;2.22;1.00;;;16.80;92.60;;;;;;5074509;28;20032;-44
2024/03/13 02:55:24;;;;;;;0.90;0.73;;;16.80;92.60;;;;;;5072469;28;20386;-44
2024/03/13 02:57:49;;;;;;;1.17;0.98;;;16.80;92.50;;;;;;5072824;28;20497;-43
2024/03/13 03:00:16;;;;;;;1.27;0.80;;;16.80;92.50;;;;;;5074708;28;20063;-43
2024/03/13 03:02:41;;;;;;;1.73;1.00;;;16.80;92.50;;;;;;5074405;28;20029;-44
2024/03/13 03:05:07;;;;;;;1.52;0.80;;;16.80;92.50;;;;;;5073954;28;20360;-42
2024/03/13 03:07:34;;;;;;;1.33;0.90;;;16.80;92.50;;;;;;5073766;28;20032;-40
2024/03/13 03:10:00;;;;;;;1.10;0.80;;;16.80;92.50;;;;;;5073315;28;20104;-43
2024/03/13 03:12:27;;;;;;;1.58;0.70;;;16.80;92.50;;;;;;5074489;28;20024;-43
2024/03/13 03:14:55;;;;;;;1.85;0.80;;;16.80;92.50;;;;;;5073247;28;20021;-44
2024/03/13 03:17:22;;;;;;;1.33;0.68;;;16.80;92.50;;;;;;5075224;28;20031;-44
2024/03/13 03:19:51;;;;;;;0.70;0.60;;;16.80;92.50;;;;;;5073445;28;20101;-44
2024/03/13 03:22:20;;;;;;;1.52;0.80;;;16.80;92.50;;;;;;5073683;28;20100;-43
2024/03/13 03:24:45;;;;;;;1.08;0.77;;;16.80;92.50;;;;;;5071943;28;20032;-44
2024/03/13 03:27:12;;;;;;;1.40;0.93;;;16.80;92.50;;;;;;5072306;28;20091;-44
2024/03/13 03:29:41;;;;;;;0.82;0.60;;;16.80;92.50;;;;;;5073147;28;20028;-44
2024/03/13 03:32:07;;;;;;;0.65;0.55;;;16.70;92.40;;;;;;5073051;28;20013;-44
2024/03/13 03:34:33;;;;;;;1.50;0.70;;;16.80;92.50;;;;;;5073299;28;20028;-44
2024/03/13 03:37:01;;;;;;;1.13;0.80;;;16.70;92.40;;;;;;5073010;28;20024;-43
2024/03/13 03:39:28;;;;;;;0.93;0.60;;;16.70;92.50;;;;;;5073061;28;20044;-44
2024/03/13 03:41:53;;;;;;;0.80;0.65;;;16.60;92.40;;;;;;5073390;28;20493;-44
2024/03/13 03:44:19;;;;;;;1.35;0.80;;;16.60;92.80;;;;;;5073977;28;20029;-43
2024/03/13 03:46:44;;;;;;;0.63;0.50;;;16.60;92.50;;;;;;5072119;28;20039;-41
2024/03/13 03:49:11;;;;;;;1.17;0.90;;;16.50;92.50;;;;;;5072438;28;20059;-43
2024/03/13 03:51:37;;;;;;;0.73;0.50;;;16.40;92.60;;;;;;5072976;28;20017;-44
2024/03/13 03:54:03;;;;;;;0.68;0.52;;;16.40;92.70;;;;;;5072975;28;20078;-44
2024/03/13 03:56:30;;;;;;;0.70;0.60;;;16.30;92.70;;;;;;5073466;28;20020;-43
2024/03/13 03:58:56;;;;;;;0.93;0.60;;;16.20;92.80;;;;;;5073794;28;20032;-44
2024/03/13 04:01:24;;;;;;;0.63;0.50;;;16.10;92.90;;;;;;5073619;28;20471;-44
2024/03/13 04:03:51;;;;;;;1.27;0.65;;;16.10;93.00;;;;;;5073381;28;20394;-44
2024/03/13 04:06:17;;;;;;;1.00;0.70;;;16.00;93.10;;;;;;5073085;28;20094;-43
2024/03/13 04:08:46;;;;;;;0.60;0.40;;;15.90;93.20;;;;;;5073464;28;20032;-44
2024/03/13 04:11:12;;;;;;;0.98;0.70;;;15.80;93.30;;;;;;5071651;28;20021;-44
2024/03/13 04:13:38;;;;;;;0.80;0.50;;;15.70;93.40;;;;;;5073094;28;20101;-44
2024/03/13 04:16:05;;;;;;;0.90;0.50;;;15.60;93.50;;;;;;5072572;28;20386;-43
2024/03/13 04:18:32;;;;;;;0.88;0.50;;;15.50;93.60;;;;;;5072016;28;20034;-43
2024/03/13 04:20:59;;;;;;;1.17;0.52;;;15.50;93.70;;;;;;5071540;28;20031;-43
2024/03/13 04:23:24;;;;;;;0.80;0.60;;;15.40;93.80;;;;;;5072011;28;20086;-43
2024/03/13 04:25:52;;;;;;;0.82;0.43;;;15.30;93.90;;;;;;5072367;28;20024;-44
2024/03/13 04:28:18;;;;;;;0.50;0.50;;;15.20;94.10;;;;;;5072079;28;20518;-43
2024/03/13 04:30:44;;;;;;;1.80;0.50;;;15.20;94.20;;;;;;5073774;28;20054;-44
2024/03/13 04:33:09;;;;;;;0.80;0.60;;;15.10;94.20;;;;;;5072891;28;20146;-44
2024/03/13 04:35:36;;;;;;;0.40;0.40;;;15.00;94.30;;;;;;5071058;28;20111;-44
2024/03/13 04:38:03;;;;;;;0.63;0.40;;;15.00;94.50;;;;;;5070756;28;20101;-42
2024/03/13 04:40:28;;;;;;;0.68;0.60;;;14.90;94.50;;;;;;5070577;28;20033;-44
2024/03/13 04:42:54;;;;;;;0.73;0.50;;;14.80;94.60;;;;;;5073136;28;20110;-43
2024/03/13 04:45:19;;;;;;;0.95;0.60;;;14.80;94.80;;;;;;5071568;28;20163;-41
2024/03/13 04:47:45;;;;;;;0.57;0.40;;;14.70;94.80;;;;;;5071553;28;20513;-43
2024/03/13 04:50:11;;;;;;;0.90;0.50;;;14.60;94.90;;;;;;5072329;28;20029;-43
2024/03/13 04:52:37;;;;;;;0.77;0.40;;;14.50;95.00;;;;;;5071767;28;20031;-43
2024/03/13 04:55:04;;;;;;;0.40;0.30;;;14.50;95.10;;;;;;5071914;28;20095;-43
2024/03/13 04:57:29;;;;;;;0.68;0.50;;;14.40;95.20;;;;;;5070808;28;20112;-43
2024/03/13 04:59:55;;;;;;;0.50;0.40;;;14.40;95.30;;;;;;5073040;28;20491;-44
2024/03/13 05:02:20;;;;;;;0.68;0.60;;;14.30;95.40;;;;;;5071970;28;20032;-43
2024/03/13 05:04:46;;;;;;;0.75;0.43;;;14.30;95.40;;;;;;5070981;28;20070;-43
2024/03/13 05:07:12;;;;;;;0.88;0.63;;;14.20;95.50;;;;;;5070998;28;20035;-43
2024/03/13 05:09:41;;;;;;;0.40;0.35;;;14.20;95.60;;;;;;5072420;28;20039;-44
2024/03/13 05:12:07;;;;;;;1.88;0.40;;;14.10;95.70;;;;;;5070853;28;20061;-43
2024/03/13 05:14:33;;;;;;;0.40;0.40;;;14.00;95.70;;;;;;5071107;28;20428;-43
2024/03/13 05:16:59;;;;;;;0.60;0.50;;;14.00;95.80;;;;;;5071494;28;20059;-44
2024/03/13 05:19:25;;;;;;;0.47;0.40;;;14.00;95.90;;;;;;5072929;28;20036;-43
2024/03/13 05:21:53;;;;;;;0.50;0.43;;;13.90;96.00;;;;;;5071411;28;20024;-43
2024/03/13 05:24:19;;;;;;;0.95;0.47;;;13.90;96.10;;;;;;5071245;28;20086;-41
2024/03/13 05:26:46;;;;;;;0.88;0.55;;;13.80;96.10;;;;;;5070939;28;20024;-41
2024/03/13 05:29:12;;;;;;;0.80;0.55;;;13.80;96.20;;;;;;5071241;28;20039;-43
2024/03/13 05:31:37;;;;;;;0.65;0.57;;;13.70;96.20;;;;;;5071568;28;20025;-44
2024/03/13 05:34:04;;;;;;;1.25;0.70;;;13.70;96.30;;;;;;5072481;28;20096;-44
2024/03/13 05:36:30;;;;;;;1.10;0.52;;;13.70;96.20;;;;;;5072507;28;20075;-43
2024/03/13 05:38:56;;;;;;;1.10;0.90;;;13.60;96.10;;;;;;5070629;28;20056;-44
2024/03/13 05:41:22;;;;;;;1.67;0.88;;;13.50;96.10;;;;;;5071972;28;20025;-43
2024/03/13 05:43:49;;;;;;;1.50;0.90;;;13.50;96.20;;;;;;5071557;28;20029;-43
2024/03/13 05:46:15;;;;;;;1.35;0.80;;;13.40;96.20;;;;;;5073294;28;20286;-43
2024/03/13 05:48:41;;;;;;;5.47;0.85;;;13.40;96.20;;;;;;5076448;28;20028;-42
2024/03/13 05:51:08;;;;;;;1.10;0.80;;;13.40;96.30;;;;;;5076515;28;20441;-43
2024/03/13 05:53:34;;;;;;;1.25;0.80;;;13.40;96.40;;;;;;5075592;28;20020;-43
2024/03/13 05:56:00;;;;;;;1.17;0.82;;;13.30;96.40;;;;;;5074417;28;20360;-44
2024/03/13 05:58:25;;;;;;;1.30;0.80;;;13.30;96.40;;;;;;5075867;28;20048;-42
2024/03/13 06:00:52;;;;;;;2.00;0.85;;;13.30;96.50;;;;;;5074415;28;20033;-42
2024/03/13 06:03:18;;;;;;;1.45;0.77;;;13.30;96.50;;;;;;5075479;28;20032;-44
2024/03/13 06:05:45;;;;;;;1.52;0.85;;;13.30;96.90;;;;;;5073901;28;20129;-43
2024/03/13 06:08:12;;;;;;;1.40;0.80;;;13.20;96.60;;;;;;5073768;28;20159;-43
2024/03/13 06:10:38;;;;;;;1.55;0.77;;;13.20;96.60;;;;;;5075270;28;20036;-43
2024/03/13 06:13:03;;;;;;;2.55;0.80;;;13.20;96.60;;;;;;5074288;28;20021;-43
2024/03/13 06:15:29;;;;;;;1.98;0.90;;;13.20;96.70;;;;;;5075790;28;20029;-43
2024/03/13 06:17:55;;;;;;;0.98;0.68;;;13.20;96.80;;;;;;5073553;28;20028;-43
2024/03/13 06:20:21;;;;;;;2.13;0.80;;;13.20;96.80;;;;;;5075463;28;20028;-41
2024/03/13 06:22:47;;;;;;;0.93;0.70;;;13.20;96.80;;;;;;5074993;28;20024;-41
2024/03/13 06:25:13;;;;;;;0.93;0.70;;;13.20;96.90;;;;;;5077293;28;20314;-43
2024/03/13 06:27:40;;;;;;;2.85;0.68;;;13.20;96.90;;;;;;5075325;28;20028;-43
2024/03/13 06:30:08;;;;;;;1.10;0.80;;;13.30;96.90;;;;;;5073366;28;20097;-44
2024/03/13 06:32:34;;;;;;;3.33;0.80;;;13.30;96.80;;;;;;5075523;28;20028;-44
2024/03/13 06:35:03;;;;;;;0.77;0.60;;;13.30;96.80;;;;;;5074442;28;20506;-44
2024/03/13 06:37:29;;;;;;;1.73;0.90;;;13.40;96.80;;;;;;5073554;28;20550;-44
2024/03/13 06:39:58;;;;;;;2.20;0.90;;;13.40;96.70;;;;;;5074313;28;20107;-41
2024/03/13 06:42:24;;;;;;;1.60;0.90;;;13.50;96.70;;;;;;5075530;28;20071;-43
2024/03/13 06:44:51;;;;;;;1.20;0.70;;;13.50;96.60;;;;;;5075250;28;20029;-44
2024/03/13 06:47:16;;;;;;;2.03;0.73;;;13.60;96.60;;;;;;5074818;28;20046;-43
2024/03/13 06:49:46;;;;;;;0.98;0.80;;;13.60;96.50;;;;;;5073853;28;20028;-44
2024/03/13 06:52:15;;;;;;;0.73;0.60;;;13.70;96.40;;;;;;5073844;28;20020;-43
2024/03/13 06:54:41;;;;;;;1.10;0.60;;;13.70;96.30;;;;;;5073955;28;20050;-42
2024/03/13 06:57:09;;;;;;;1.42;0.82;;;13.80;96.30;;;;;;5074004;28;20025;-43
2024/03/13 06:59:35;;;;;;;0.80;0.50;;;13.90;96.60;;;;;;5074602;28;20025;-43
2024/03/13 07:02:01;;;;;;;1.15;0.60;;;13.90;96.10;;;;;;5075415;28;20413;-41
2024/03/13 07:04:27;;;;;;;1.38;0.68;;;13.90;96.10;;;;;;5074033;28;20024;-43
2024/03/13 07:07:00;;;;;;;0.77;0.55;;;14.10;96.10;;;;;;5074661;28;20033;-41
2024/03/13 07:09:29;;;;;;;1.10;0.60;;;14.10;96.00;;;;;;5073492;28;20110;-44
2024/03/13 07:11:54;;;;;;;0.93;0.55;;;14.20;95.90;;;;;;5074429;28;20035;-44
2024/03/13 07:14:20;;;;;;;1.30;0.75;;;14.20;95.80;;;;;;5074031;28;20025;-44
2024/03/13 07:16:47;;;;;;;1.33;0.70;;;14.30;95.70;;;;;;5073742;28;20021;-44
2024/03/13 07:19:13;;;;;;;1.38;0.70;;;14.40;95.60;;;;;;5073236;28;20023;-43
2024/03/13 07:21:40;;;;;;;1.15;0.70;;;14.40;95.50;;;;;;5074129;28;20035;-40
2024/03/13 07:24:06;;;;;;;0.75;0.50;;;14.50;95.40;;;;;;5073470;28;20095;-38
2024/03/13 07:26:32;;;;;;;1.40;0.65;;;14.50;95.30;;;;;;5073345;28;20059;-44
2024/03/13 07:28:58;;;;;;;0.88;0.60;;;14.60;95.20;;;;;;5073072;28;20039;-44
2024/03/13 07:31:24;;;;;;;0.98;0.50;;;14.60;95.10;;;;;;5072529;28;20031;-43
2024/03/13 07:33:53;;;;;;;0.77;0.45;;;14.70;95.10;;;;;;5073076;28;20013;-43
2024/03/13 07:36:21;;;;;;;0.65;0.40;;;14.70;95.00;;;;;;5074846;28;20051;-43
2024/03/13 07:38:48;;;;;;;0.75;0.52;;;14.80;94.90;;;;;;5073258;28;20025;-44
2024/03/13 07:41:14;;;;;;;0.55;0.40;;;14.80;94.80;;;;;;5072097;28;20056;-44
2024/03/13 07:43:39;;;;;;;1.38;0.60;;;14.90;94.70;;;;;;5073201;28;20055;-42
2024/03/13 07:46:05;;;;;;;0.98;0.65;;;14.90;94.60;;;;;;5073045;28;20493;-44
2024/03/13 07:48:30;;;;;;;0.40;0.32;;;15.00;94.60;;;;;;5072850;28;20025;-44
2024/03/13 07:50:56;;;;;;;0.55;0.40;;;15.00;94.50;;;;;;5072851;28;20514;-42
2024/03/13 07:53:22;;;;;;;0.50;0.40;;;15.10;94.60;;;;;;5072492;28;20048;-41
2024/03/13 07:55:48;;;;;;;0.75;0.30;;;15.10;94.60;;;;;;5072590;28;20145;-44
2024/03/13 07:58:14;;;;;;;0.40;0.30;;;15.20;94.70;;;;;;5072079;28;20028;-44
2024/03/13 08:00:40;;;;;;;0.80;0.38;;;15.20;94.80;;;;;;5072381;28;20028;-44
2024/03/13 08:03:06;;;;;;;0.60;0.32;;;15.30;94.80;;;;;;5072977;28;20403;-43
2024/03/13 08:05:32;;;;;;;0.40;0.30;;;15.30;94.80;;;;;;5072692;28;20020;-41
2024/03/13 08:07:58;;;;;;;0.40;0.30;;;15.30;94.80;;;;;;5071389;28;20509;-44
2024/03/13 08:10:25;;;;;;;0.98;0.30;;;15.40;95.20;;;;;;5071622;28;20054;-44
2024/03/13 08:12:54;;;;;;;1.20;0.30;;;15.40;94.80;;;;;;5072246;28;20036;-43
2024/03/13 08:15:20;;;;;;;0.52;0.38;;;15.50;94.80;;;;;;5071547;28;20025;-43
2024/03/13 08:17:46;;;;;;;0.50;0.30;;;15.50;94.80;;;;;;5071767;28;20108;-44
2024/03/13 08:20:12;;;;;;;0.30;0.30;;;15.60;94.80;;;;;;5071802;28;20017;-44
2024/03/13 08:22:39;;;;;;;0.68;0.40;;;15.60;94.70;;;;;;5071864;28;20460;-42
2024/03/13 08:25:05;;;;;;;0.30;0.30;;;15.60;94.70;;;;;;5073025;28;20031;-44
2024/03/13 08:27:30;;;;;;;0.32;0.28;;;15.70;94.60;;;;;;5072825;28;20127;-44
2024/03/13 08:29:56;;;;;;;0.40;0.30;;;15.70;94.60;;;;;;5071400;28;20031;-43
2024/03/13 08:32:22;;;;;;;0.40;0.40;;;15.70;94.60;;;;;;5072684;28;20056;-43
2024/03/13 08:34:49;;;;;;;0.40;0.30;;;15.80;94.60;;;;;;5071119;28;20454;-44
2024/03/13 08:37:15;;;;;;;0.50;0.30;;;15.80;94.50;;;;;;5072511;28;20482;-44
2024/03/13 08:39:41;;;;;;;1.50;0.40;;;15.80;94.50;;;;;;5071580;28;20032;-44
2024/03/13 08:42:06;;;;;;;0.40;0.25;;;15.90;94.40;;;;;;5072355;28;20253;-44
2024/03/13 08:44:32;;;;;;;1.10;0.30;;;15.90;94.40;;;;;;5073017;28;20027;-43
2024/03/13 08:46:59;;;;;;;0.55;0.30;;;16.00;94.40;;;;;;5071842;28;20024;-43
2024/03/13 08:49:24;;;;;;;0.30;0.30;;;16.00;94.40;;;;;;5072446;28;20017;-44
2024/03/13 08:51:53;;;;;;;0.50;0.30;;;16.00;94.30;;;;;;5072269;28;20047;-41
2024/03/13 08:54:18;;;;;;;0.30;0.20;;;16.00;94.30;;;;;;5071393;28;20020;-44
2024/03/13 08:56:46;;;;;;;0.20;0.20;;;16.00;94.20;;;;;;5071539;28;20027;-44
2024/03/13 08:59:12;;;;;;;0.40;0.30;;;16.10;94.20;;;;;;5072528;28;20269;-44
2024/03/13 09:01:41;;;;;;;0.75;0.30;;;16.10;94.20;;;;;;5071764;28;20479;-43
2024/03/13 09:04:08;;;;;;;0.45;0.22;;;16.10;94.20;;;;;;5073418;28;20071;-44
2024/03/13 09:06:36;;;;;;;0.17;0.10;;;16.10;94.10;;;;;;5072461;28;20483;-44
2024/03/13 09:09:05;;;;;;;0.38;0.30;;;16.10;94.10;;;;;;5071029;28;20494;-44
2024/03/13 09:11:31;;;;;;;0.20;0.20;;;16.20;94.10;;;;;;5071245;28;20023;-42
2024/03/13 09:14:03;;;;;;;0.20;0.20;;;16.20;94.00;;;;;;5073595;28;20024;-43
2024/03/13 09:16:32;;;;;;;0.30;0.20;;;16.30;94.10;;;;;;5070764;28;20055;-43
2024/03/13 09:18:58;;;;;;;0.30;0.22;;;16.30;94.00;;;;;;5071091;28;20032;-44
2024/03/13 09:21:24;;;;;;;0.75;0.20;;;16.30;94.00;;;;;;5072980;28;20024;-43
2024/03/13 09:23:53;;;;;;;0.43;0.22;;;16.30;94.00;;;;;;5075942;28;20390;-42
2024/03/13 09:26:19;;;;;;;0.50;0.30;;;16.40;94.00;;;;;;5075626;28;20157;-44
2024/03/13 09:28:48;;;;;;;0.50;0.30;;;16.40;94.00;;;;;;5074390;28;20500;-44
2024/03/13 09:31:13;;;;;;;0.38;0.30;;;16.40;93.90;;;;;;5075312;28;20031;-44
2024/03/13 09:33:39;;;;;;;0.52;0.30;;;16.50;93.90;;;;;;5075884;28;20020;-42
2024/03/13 09:36:14;;;;;;;0.65;0.20;;;16.40;93.90;;;;;;5074612;28;20028;-43
2024/03/13 09:38:44;;;;;;;0.20;0.20;;;16.50;93.90;;;;;;5075318;28;20130;-44
2024/03/13 09:41:16;;;;;;;0.20;0.20;;;16.50;93.90;;;;;;5075583;28;20058;-43
2024/03/13 09:43:42;;;;;;;0.30;0.20;;;16.50;93.80;;;;;;5074787;28;20072;-44
2024/03/13 09:46:09;;;;;;;0.30;0.20;;;16.50;93.80;;;;;;5074602;28;20020;-43
2024/03/13 09:48:40;;;;;;;0.60;0.30;;;16.60;94.10;;;;;;5074897;28;20393;-44
2024/03/13 09:51:09;;;;;;;0.52;0.30;;;16.60;93.80;;;;;;5075556;28;20028;-43
2024/03/13 09:53:36;;;;;;;0.43;0.30;;;16.60;93.70;;;;;;5075265;28;20418;-44
2024/03/13 09:56:03;;;;;;;0.70;0.20;;;16.60;93.70;;;;;;5074803;28;20097;-43
2024/03/13 09:58:30;;;;;;;0.20;0.20;;;16.70;93.70;;;;;;5074747;28;20029;-44
2024/03/13 10:00:59;;;;;;;0.50;0.30;;;16.70;93.70;;;;;;5075576;28;20486;-43
2024/03/13 10:03:27;;;;;;;0.30;0.28;;;16.70;93.70;;;;;;5074942;28;20025;-44
2024/03/13 10:06:01;;;;;;;0.57;0.20;;;16.70;93.70;;;;;;5075132;28;20102;-44
2024/03/13 10:08:28;;;;;;;0.35;0.20;;;16.80;93.80;;;;;;5076536;28;20016;-44
2024/03/13 10:11:00;;;;;;;0.30;0.30;;;16.80;93.80;;;;;;5075064;28;20431;-44
2024/03/13 10:13:27;;;;;;;0.63;0.30;;;16.80;93.80;;;;;;5076006;28;20306;-44
2024/03/13 10:15:53;;;;;;;0.40;0.30;;;16.90;93.80;;;;;;5074608;28;20029;-44
2024/03/13 10:18:20;;;;;;;0.45;0.20;;;16.90;93.80;;;;;;5073965;28;20036;-43
2024/03/13 10:20:59;;;;;;;0.40;0.32;;;16.90;93.70;;;;;;5074783;28;20601;-43
2024/03/13 10:23:30;;;;;;;0.30;0.20;;;17.00;93.70;;;;;;5073813;28;20045;-44
2024/03/13 10:25:59;;;;;;;0.50;0.30;;;17.00;93.70;;;;;;5074889;28;20032;-44
2024/03/13 10:28:26;;;;;;;0.22;0.20;;;17.00;93.70;;;;;;5074181;28;20029;-44
2024/03/13 10:30:53;;;;;;;0.32;0.30;;;17.10;93.70;;;;;;5074973;28;20024;-43
2024/03/13 10:33:19;;;;;;;0.40;0.30;;;17.10;93.60;;;;;;5073964;28;20031;-42
2024/03/13 10:35:45;;;;;;;0.85;0.17;;;17.10;93.60;;;;;;5074653;28;20091;-43
2024/03/13 10:38:12;;;;;;;0.30;0.22;;;17.20;93.60;;;;;;5074436;28;20475;-44
2024/03/13 10:40:42;;;;;;;0.22;0.20;;;17.20;93.50;;;;;;5073877;28;20040;-42
2024/03/13 10:43:11;;;;;;;0.85;0.30;;;17.20;93.50;;;;;;5074381;28;20513;-43
2024/03/13 10:45:40;;;;;;;0.20;0.20;;;17.30;93.50;;;;;;5073977;28;20073;-44
2024/03/13 10:48:11;;;;;;;0.30;0.10;;;17.30;93.40;;;;;;5073459;28;20039;-43
2024/03/13 10:50:37;;;;;;;0.75;0.30;;;17.30;93.40;;;;;;5072673;28;20021;-44
2024/03/13 10:53:05;;;;;;;0.40;0.20;;;17.30;93.40;;;;;;5074815;28;20025;-44
2024/03/13 10:55:31;;;;;;;0.50;0.30;;;17.40;93.30;;;;;;5073140;28;20082;-44
2024/03/13 10:57:58;;;;;;;0.20;0.20;;;17.40;93.30;;;;;;5073558;28;20021;-44
2024/03/13 11:00:28;;;;;;;0.38;0.20;;;17.40;93.30;;;;;;5074653;28;20115;-44
2024/03/13 11:02:54;;;;;;;0.40;0.30;;;17.40;93.20;;;;;;5074440;28;20028;-44
2024/03/13 11:05:21;;;;;;;0.20;0.20;;;17.50;93.20;;;;;;5074562;28;20485;-44
2024/03/13 11:07:47;;;;;;;0.20;0.20;;;17.50;93.20;;;;;;5073613;28;20036;-44
2024/03/13 11:10:21;;;;;;;0.20;0.10;;;17.50;93.20;;;;;;5074288;28;20025;-42
2024/03/13 11:12:53;;;;;;;0.25;0.20;;;17.50;93.20;;;;;;5073460;28;20033;-44
2024/03/13 11:15:30;;;;;;;0.20;0.20;;;17.50;93.10;;;;;;5073833;28;20116;-43
2024/03/13 11:17:59;;;;;;;0.20;0.20;;;17.50;93.10;;;;;;5073246;28;20513;-43
2024/03/13 11:20:30;;;;;;;0.10;0.10;;;17.50;93.10;;;;;;5072942;28;20036;-44
2024/03/13 11:23:05;;;;;;;0.30;0.20;;;17.60;93.10;;;;;;5073842;28;20020;-43
2024/03/13 11:25:34;;;;;;;0.70;0.40;;;17.60;93.20;;;;;;5074637;28;20020;-44
2024/03/13 11:28:02;;;;;;;0.88;0.20;;;17.60;93.20;;;;;;5072301;28;20368;-44
2024/03/13 11:30:33;;;;;;;0.17;0.15;;;17.60;93.20;;;;;;5072933;28;20072;-44
2024/03/13 11:32:59;;;;;;;0.28;0.20;;;17.60;93.10;;;;;;5074241;28;20048;-44
2024/03/13 11:35:27;;;;;;;0.40;0.20;;;17.70;93.10;;;;;;5073568;28;20025;-41
2024/03/13 11:37:54;;;;;;;0.50;0.30;;;17.70;93.20;;;;;;5072860;28;20024;-44
2024/03/13 11:40:21;;;;;;;0.50;0.30;;;17.70;93.00;;;;;;5073211;28;20413;-43
2024/03/13 11:42:47;;;;;;;0.60;0.50;;;17.70;93.00;;;;;;5073756;28;20028;-44
2024/03/13 11:45:21;;;;;;;0.40;0.30;;;17.70;92.90;;;;;;5075033;28;20102;-44
2024/03/13 11:47:47;;;;;;;0.47;0.30;;;17.70;92.80;;;;;;5072655;28;20039;-44
2024/03/13 11:50:13;;;;;;;0.20;0.20;;;17.70;92.70;;;;;;5072332;28;20498;-44
2024/03/13 11:52:59;;;;;;;0.95;0.13;;;17.70;92.70;;;;;;5074076;28;20114;-44
2024/03/13 11:55:29;;;;;;;0.47;0.30;;;17.70;92.60;;;;;;5072097;28;20042;-44
2024/03/13 11:58:18;;;;;;;0.40;0.28;;;17.70;92.60;;;;;;5071881;28;20393;-44
2024/03/13 12:00:44;;;;;;;0.77;0.40;;;17.70;92.60;;;;;;5072659;28;20035;-44
2024/03/13 12:03:13;;;;;;;0.80;0.30;;;17.70;92.50;;;;;;5072595;28;20024;-42
2024/03/13 12:05:40;;;;;;;0.22;0.20;;;17.70;92.50;;;;;;5072812;28;20475;-40
2024/03/13 12:08:08;;;;;;;0.20;0.15;;;17.70;92.50;;;;;;5072410;28;20035;-41
2024/03/13 12:10:34;;;;;;;0.47;0.20;;;17.70;92.50;;;;;;5071929;28;20012;-45
2024/03/13 12:13:00;;;;;;;0.20;0.20;;;17.70;92.40;;;;;;5071845;28;20020;-44
2024/03/13 12:15:27;;;;;;;0.30;0.20;;;17.70;92.40;;;;;;5073079;28;20032;-44
2024/03/13 12:17:56;;;;;;;0.60;0.30;;;17.80;92.40;;;;;;5072078;28;20501;-44
2024/03/13 12:20:24;;;;;;;0.40;0.30;;;17.80;92.40;;;;;;5071453;28;20551;-43
2024/03/13 12:22:50;;;;;;;0.82;0.28;;;17.80;92.40;;;;;;5071555;28;20048;-44
2024/03/13 12:25:19;;;;;;;0.57;0.25;;;17.80;92.40;;;;;;5072408;28;20063;-44
2024/03/13 12:27:51;;;;;;;0.30;0.20;;;17.80;92.40;;;;;;5072545;28;20494;-44
2024/03/13 12:30:20;;;;;;;0.45;0.32;;;17.80;92.40;;;;;;5072143;28;20035;-40
2024/03/13 12:32:53;;;;;;;0.60;0.40;;;17.80;92.30;;;;;;5072902;28;20028;-44
2024/03/13 12:35:18;;;;;;;0.38;0.20;;;17.80;92.20;;;;;;5071321;28;20048;-43
2024/03/13 12:37:50;;;;;;;0.40;0.20;;;17.90;92.20;;;;;;5071452;28;20481;-42
2024/03/13 12:40:16;;;;;;;0.45;0.40;;;17.90;92.20;;;;;;5072008;28;20513;-42
2024/03/13 12:42:45;;;;;;;0.45;0.20;;;17.90;92.10;;;;;;5072906;28;20028;-44
2024/03/13 12:45:14;;;;;;;0.20;0.10;;;17.90;92.10;;;;;;5072587;28;20116;-44
2024/03/13 12:47:41;;;;;;;0.30;0.22;;;17.90;92.00;;;;;;5071602;28;20088;-44
2024/03/13 12:50:11;;;;;;;0.52;0.30;;;17.90;92.00;;;;;;5072119;28;20028;-44
2024/03/13 12:52:38;;;;;;;0.30;0.20;;;17.90;92.00;;;;;;5072033;28;20116;-42
2024/03/13 12:55:10;;;;;;;0.73;0.30;;;18.00;91.90;;;;;;5071324;28;20028;-44
2024/03/13 12:57:39;;;;;;;0.45;0.30;;;18.00;91.90;;;;;;5070907;28;20446;-43
2024/03/13 13:00:09;;;;;;;0.82;0.30;;;17.90;91.90;;;;;;5072337;28;20024;-44
2024/03/13 13:02:35;;;;;;;0.50;0.20;;;18.00;91.90;;;;;;5072498;28;20510;-43
2024/03/13 13:05:00;;;;;;;0.43;0.35;;;17.90;91.90;;;;;;5072498;28;20040;-44
2024/03/13 13:07:27;;;;;;;0.40;0.30;;;18.00;91.90;;;;;;5072269;28;20032;-44